Pu Dun — XUUB9 — position and weather

sailwx.info

Track history (hours):
 
Tides and Currents Weather Stations Pressure Air Temp Water Temp Dewpoint Dewpoint Depression Visibility Wind Speed Wind Dir Waves Ship Positions

Pu Dun

Last reported at 2014-Dec-30 11:25 UTC. Time now 2015-Jan-31 14:43 UTC.
Position N 38°57' E 117°53'.
Warning: this ship's position is 32 days out of date.

Length 75 m; draft 3.2 m.

Type: Cargo ship. MMSI: 515213000.

Date/timePositionNaut miles runAvg speedWind from/ knotsBaromVisibWave heightAir tempDewpointWater temp
2014-Dec-30 11:25N 38°57' E 117°53'6 5.5
2014-Dec-30 10:17N 38°59' E 117°45'0 0.0
2014-Dec-30 09:33N 38°59' E 117°45'0 0.0
2014-Dec-30 08:33N 38°59' E 117°45'0 0.0
2014-Dec-30 07:34N 38°59' E 117°45'0 0.0
2014-Dec-30 06:33N 38°59' E 117°45'0 0.0
2014-Dec-30 05:33N 38°59' E 117°45'0 0.0
2014-Dec-30 04:33N 38°59' E 117°45'0 0.0
2014-Dec-30 03:34N 38°59' E 117°45'0 0.0
2014-Dec-30 02:33N 38°59' E 117°45'0 0.0
2014-Dec-30 01:33N 38°59' E 117°45'0 0.0
2014-Dec-30 00:34N 38°59' E 117°45'0 0.0
2014-Dec-29 23:26N 38°59' E 117°45'0 0.0
2014-Dec-29 22:20N 38°59' E 117°45'0 0.0
2014-Dec-29 21:32N 38°59' E 117°45'0 0.0
2014-Dec-29 20:32N 38°59' E 117°45'0 0.1
2014-Dec-29 19:33N 38°59' E 117°46'7 7.2
2014-Dec-29 18:34N 38°57' E 117°55'5 0.3
2014-Dec-29 02:19N 38°57' E 118°01'0 0.0
2014-Dec-28 21:25N 38°57' E 118°01'0 0.0
2014-Dec-28 20:07N 38°57' E 118°01'1 1.0
2014-Dec-28 19:33N 38°57' E 118°02'183 9.0
2014-Dec-27 23:19N 37°51' E 121°40'8 9.8
2014-Dec-27 22:31N 37°49' E 121°49'  
2014-Dec-24 07:33N 34°35' E 135°05'9 8.8
2014-Dec-24 06:31N 34°26' E 135°03'237 6.6
2014-Dec-22 18:28N 35°16' E 139°45'8 8.8
2014-Dec-22 17:33N 35°24' E 139°43'4 3.9
2014-Dec-22 16:32N 35°28' E 139°43'0 0.0
2014-Dec-22 15:32N 35°28' E 139°43'0 0.0
2014-Dec-22 14:32N 35°28' E 139°43'0 0.0
2014-Dec-22 13:23N 35°28' E 139°43'0 0.0
2014-Dec-22 11:23N 35°28' E 139°43'0 0.0
2014-Dec-22 09:32N 35°28' E 139°43'0 0.0
2014-Dec-22 06:29N 35°28' E 139°43'0 0.0
2014-Dec-22 04:32N 35°28' E 139°43'0 0.0
2014-Dec-22 03:32N 35°28' E 139°43'0 0.0
2014-Dec-22 02:14N 35°28' E 139°43'0 0.0
2014-Dec-22 01:08N 35°28' E 139°43'0 0.0
2014-Dec-22 00:32N 35°28' E 139°43'0 0.0
2014-Dec-21 23:29N 35°28' E 139°43'0 0.0
2014-Dec-21 22:32N 35°28' E 139°43'0 0.0
2014-Dec-21 21:32N 35°28' E 139°43'0 0.0
2014-Dec-21 20:32N 35°28' E 139°43'0 0.0
2014-Dec-21 19:32N 35°28' E 139°43'0 0.0
2014-Dec-21 18:32N 35°28' E 139°43'0 0.0
2014-Dec-21 17:32N 35°28' E 139°43'0 0.0
2014-Dec-21 16:29N 35°28' E 139°43'0 0.0
2014-Dec-21 15:29N 35°28' E 139°43'0 0.0
2014-Dec-21 14:20N 35°28' E 139°43'0 0.0
2014-Dec-21 13:32N 35°28' E 139°43'0 0.0
2014-Dec-21 12:29N 35°28' E 139°43'0 0.0
2014-Dec-21 11:29N 35°28' E 139°43'0 0.0
2014-Dec-21 10:23N 35°28' E 139°43'0 0.0
2014-Dec-21 09:32N 35°28' E 139°43'0 0.0
2014-Dec-21 08:32N 35°28' E 139°43'0 0.0
2014-Dec-21 07:20N 35°28' E 139°43'0 0.0
2014-Dec-21 06:29N 35°28' E 139°43'0 0.0
2014-Dec-21 05:32N 35°28' E 139°43'0 0.0
2014-Dec-21 04:20N 35°28' E 139°43'0 0.0
2014-Dec-21 03:20N 35°28' E 139°43'0 0.0
2014-Dec-21 02:32N 35°28' E 139°43'0 0.0
2014-Dec-21 01:14N 35°28' E 139°43'0 0.0
2014-Dec-21 00:32N 35°28' E 139°43'0 0.0
2014-Dec-20 23:32N 35°28' E 139°43'0 0.0
2014-Dec-20 22:32N 35°28' E 139°43'0 0.0
2014-Dec-20 21:32N 35°28' E 139°43'0 0.0
2014-Dec-20 20:32N 35°28' E 139°43'0 0.0
2014-Dec-20 19:26N 35°28' E 139°43'0 0.0
2014-Dec-20 18:32N 35°28' E 139°43'0 0.0
2014-Dec-20 17:32N 35°28' E 139°43'0 0.0
2014-Dec-20 16:32N 35°28' E 139°43'0 0.0
2014-Dec-20 15:32N 35°28' E 139°43'0 0.0
2014-Dec-20 14:32N 35°28' E 139°43'0 0.0
2014-Dec-20 13:32N 35°28' E 139°43'0 0.0
2014-Dec-20 12:32N 35°28' E 139°43'1 1.1
2014-Dec-20 11:33N 35°27' E 139°43'  
Track history (hours):
 
Tides and Currents Weather Stations Pressure Air Temp Water Temp Dewpoint Dewpoint Depression Visibility Wind Speed Wind Dir Waves Ship Positions

Pu Dun

Last reported at 2014-Dec-30 11:25 UTC. Time now 2015-Jan-31 14:43 UTC.
Position N 38°57' E 117°53'.
Warning: this ship's position is 32 days out of date.

Length 75 m; draft 3.2 m.

Type: Cargo ship. MMSI: 515213000.

Date/timePositionNaut miles runAvg speedWind from/ knotsBaromVisibWave heightAir tempDewpointWater temp
2014-Dec-30 11:25N 38°57' E 117°53'6 5.5
2014-Dec-30 10:17N 38°59' E 117°45'0 0.0
2014-Dec-30 09:33N 38°59' E 117°45'0 0.0
2014-Dec-30 08:33N 38°59' E 117°45'0 0.0
2014-Dec-30 07:34N 38°59' E 117°45'0 0.0
2014-Dec-30 06:33N 38°59' E 117°45'0 0.0
2014-Dec-30 05:33N 38°59' E 117°45'0 0.0
2014-Dec-30 04:33N 38°59' E 117°45'0 0.0
2014-Dec-30 03:34N 38°59' E 117°45'0 0.0
2014-Dec-30 02:33N 38°59' E 117°45'0 0.0
2014-Dec-30 01:33N 38°59' E 117°45'0 0.0
2014-Dec-30 00:34N 38°59' E 117°45'0 0.0
2014-Dec-29 23:26N 38°59' E 117°45'0 0.0
2014-Dec-29 22:20N 38°59' E 117°45'0 0.0
2014-Dec-29 21:32N 38°59' E 117°45'0 0.0
2014-Dec-29 20:32N 38°59' E 117°45'0 0.1
2014-Dec-29 19:33N 38°59' E 117°46'7 7.2
2014-Dec-29 18:34N 38°57' E 117°55'5 0.3
2014-Dec-29 02:19N 38°57' E 118°01'0 0.0
2014-Dec-28 21:25N 38°57' E 118°01'0 0.0
2014-Dec-28 20:07N 38°57' E 118°01'1 1.0
2014-Dec-28 19:33N 38°57' E 118°02'183 9.0
2014-Dec-27 23:19N 37°51' E 121°40'8 9.8
2014-Dec-27 22:31N 37°49' E 121°49'  
2014-Dec-24 07:33N 34°35' E 135°05'9 8.8
2014-Dec-24 06:31N 34°26' E 135°03'237 6.6
2014-Dec-22 18:28N 35°16' E 139°45'8 8.8
2014-Dec-22 17:33N 35°24' E 139°43'4 3.9
2014-Dec-22 16:32N 35°28' E 139°43'0 0.0
2014-Dec-22 15:32N 35°28' E 139°43'0 0.0
2014-Dec-22 14:32N 35°28' E 139°43'0 0.0
2014-Dec-22 13:23N 35°28' E 139°43'0 0.0
2014-Dec-22 11:23N 35°28' E 139°43'0 0.0
2014-Dec-22 09:32N 35°28' E 139°43'0 0.0
2014-Dec-22 06:29N 35°28' E 139°43'0 0.0
2014-Dec-22 04:32N 35°28' E 139°43'0 0.0
2014-Dec-22 03:32N 35°28' E 139°43'0 0.0
2014-Dec-22 02:14N 35°28' E 139°43'0 0.0
2014-Dec-22 01:08N 35°28' E 139°43'0 0.0
2014-Dec-22 00:32N 35°28' E 139°43'0 0.0
2014-Dec-21 23:29N 35°28' E 139°43'0 0.0
2014-Dec-21 22:32N 35°28' E 139°43'0 0.0
2014-Dec-21 21:32N 35°28' E 139°43'0 0.0
2014-Dec-21 20:32N 35°28' E 139°43'0 0.0
2014-Dec-21 19:32N 35°28' E 139°43'0 0.0
2014-Dec-21 18:32N 35°28' E 139°43'0 0.0
2014-Dec-21 17:32N 35°28' E 139°43'0 0.0
2014-Dec-21 16:29N 35°28' E 139°43'0 0.0
2014-Dec-21 15:29N 35°28' E 139°43'0 0.0
2014-Dec-21 14:20N 35°28' E 139°43'0 0.0
2014-Dec-21 13:32N 35°28' E 139°43'0 0.0
2014-Dec-21 12:29N 35°28' E 139°43'0 0.0
2014-Dec-21 11:29N 35°28' E 139°43'0 0.0
2014-Dec-21 10:23N 35°28' E 139°43'0 0.0
2014-Dec-21 09:32N 35°28' E 139°43'0 0.0
2014-Dec-21 08:32N 35°28' E 139°43'0 0.0
2014-Dec-21 07:20N 35°28' E 139°43'0 0.0
2014-Dec-21 06:29N 35°28' E 139°43'0 0.0
2014-Dec-21 05:32N 35°28' E 139°43'0 0.0
2014-Dec-21 04:20N 35°28' E 139°43'0 0.0
2014-Dec-21 03:20N 35°28' E 139°43'0 0.0
2014-Dec-21 02:32N 35°28' E 139°43'0 0.0
2014-Dec-21 01:14N 35°28' E 139°43'0 0.0
2014-Dec-21 00:32N 35°28' E 139°43'0 0.0
2014-Dec-20 23:32N 35°28' E 139°43'0 0.0
2014-Dec-20 22:32N 35°28' E 139°43'0 0.0
2014-Dec-20 21:32N 35°28' E 139°43'0 0.0
2014-Dec-20 20:32N 35°28' E 139°43'0 0.0
2014-Dec-20 19:26N 35°28' E 139°43'0 0.0
2014-Dec-20 18:32N 35°28' E 139°43'0 0.0
2014-Dec-20 17:32N 35°28' E 139°43'0 0.0
2014-Dec-20 16:32N 35°28' E 139°43'0 0.0
2014-Dec-20 15:32N 35°28' E 139°43'0 0.0
2014-Dec-20 14:32N 35°28' E 139°43'0 0.0
2014-Dec-20 13:32N 35°28' E 139°43'0 0.0
2014-Dec-20 12:32N 35°28' E 139°43'1 1.1
2014-Dec-20 11:33N 35°27' E 139°43'  

Dump ship's entire track history